KBNO/BNO METAR and TAF weather

Enter ICAO airport designator
Station Type Date Time Source
KBNO METAR 2019/05/27 08:53 UTC NOAA

KBNO 270853Z AUTO 29008KT 10SM BKN060 BKN100 09/06 A2985 RMK AO2 SLP087 T00940061 50000 $


Station Type Date Time Source
KBNO Decoded METAR 2019/05/27 08:53 UTC NOAA

BURNS MUNICIPAL AIRPORT, OR, United States (KBNO) 43-36N 118-57W 1264M
May 27, 2019 - 04:53 AM EDT / 2019.05.27 0853 UTC
Wind: from the WNW (290 degrees) at 9 MPH (8 KT):0
Visibility: 10 mile(s):0
Sky conditions: mostly cloudy
Temperature: 48.9 F (9.4 C)
Dew Point: 43.0 F (6.1 C)
Relative Humidity: 79%
Pressure (altimeter): 29.85 in. Hg (1010 hPa)
Pressure tendency: 0.00 inches (0.0 hPa) higher than three hours ago
ob: KBNO 270853Z AUTO 29008KT 10SM BKN060 BKN100 09/06 A2985 RMK AO2 SLP087 T00940061 50000
cycle: 9

Station Type Date Time Source
KBNO TAF 2019/05/27 06:22 UTC NOAA

TAF KBNO 270520Z 2706/2806 29010KT P6SM SCT050 BKN100
FM271700 30015G25KT P6SM SCT070 BKN120

Example: see airport list